createdAt,value
2022-08-22T00:01:42.635Z,16.42
2022-08-22T00:04:44.580Z,16.36
2022-08-22T00:07:45.748Z,16.32
2022-08-22T00:10:35.510Z,16.25
2022-08-22T00:13:19.805Z,16.31
2022-08-22T00:16:14.534Z,16.34
2022-08-22T00:18:51.268Z,16.31
2022-08-22T00:21:26.251Z,16.30
2022-08-22T00:24:29.215Z,16.14
2022-08-22T00:27:02.041Z,16.08
2022-08-22T00:29:43.486Z,16.09
2022-08-22T00:32:23.759Z,16.10
2022-08-22T00:35:07.710Z,16.09
2022-08-22T00:37:44.686Z,16.12
2022-08-22T00:40:29.790Z,16.09
2022-08-22T00:43:41.103Z,16.00
2022-08-22T00:46:17.316Z,15.92
2022-08-22T00:49:18.798Z,15.95
2022-08-22T00:52:22.912Z,15.91
2022-08-22T00:55:36.355Z,15.73
2022-08-22T00:58:47.536Z,15.65
2022-08-22T01:01:19.851Z,15.62
2022-08-22T01:03:49.016Z,15.64
2022-08-22T01:06:15.387Z,15.63
2022-08-22T01:09:01.016Z,15.70
2022-08-22T01:11:46.420Z,15.66
2022-08-22T01:14:34.955Z,15.67
2022-08-22T01:17:26.419Z,15.66
2022-08-22T01:20:21.963Z,15.71
2022-08-22T01:23:26.603Z,15.71
2022-08-22T01:26:26.361Z,15.69
2022-08-22T01:29:34.927Z,15.60
2022-08-22T01:32:29.327Z,15.55
2022-08-22T01:35:30.694Z,15.46
2022-08-22T01:38:25.882Z,15.39
2022-08-22T01:41:12.129Z,15.42
2022-08-22T01:44:17.936Z,15.41
2022-08-22T01:47:13.253Z,15.29
2022-08-22T01:49:55.870Z,15.20
2022-08-22T01:52:36.970Z,15.12
2022-08-22T01:55:26.256Z,15.11
2022-08-22T01:57:59.442Z,15.11
2022-08-22T02:00:35.460Z,15.12
2022-08-22T02:03:16.488Z,14.94
2022-08-22T02:05:59.036Z,15.05
2022-08-22T02:08:48.627Z,15.17
2022-08-22T02:11:37.724Z,15.24
2022-08-22T02:14:21.125Z,15.25
2022-08-22T02:17:09.291Z,15.20
2022-08-22T02:19:46.499Z,15.13
2022-08-22T02:22:44.887Z,15.05
2022-08-22T02:25:23.683Z,14.98
2022-08-22T02:27:58.484Z,15.02
2022-08-22T02:30:47.593Z,15.07
2022-08-22T02:33:36.475Z,15.12
2022-08-22T02:36:14.341Z,15.09
2022-08-22T02:38:56.268Z,15.04
2022-08-22T02:41:47.607Z,15.02
2022-08-22T02:44:20.710Z,14.91
2022-08-22T02:47:26.507Z,14.95
2022-08-22T02:50:12.724Z,14.96
2022-08-22T02:52:51.158Z,14.89
2022-08-22T02:55:33.819Z,14.85
2022-08-22T02:58:11.893Z,14.84
2022-08-22T03:00:47.195Z,14.80
2022-08-22T03:03:24.078Z,14.85
2022-08-22T03:06:01.725Z,14.91
2022-08-22T03:08:37.957Z,14.91
2022-08-22T03:11:24.180Z,14.90
2022-08-22T03:14:26.910Z,14.91
2022-08-22T03:17:09.705Z,14.90
2022-08-22T03:20:02.145Z,14.89
2022-08-22T03:22:37.545Z,14.81
2022-08-22T03:25:17.559Z,14.80
2022-08-22T03:27:53.765Z,14.80
2022-08-22T03:30:27.798Z,14.79
2022-08-22T03:33:13.200Z,14.76
2022-08-22T03:35:57.243Z,14.73
2022-08-22T03:38:33.151Z,14.73
2022-08-22T03:41:23.934Z,14.69
2022-08-22T03:44:14.139Z,14.66
2022-08-22T03:47:16.827Z,14.68
2022-08-22T03:50:29.651Z,14.68
2022-08-22T03:53:21.761Z,14.70
2022-08-22T03:56:11.119Z,14.69
2022-08-22T03:59:02.451Z,14.70
2022-08-22T04:01:58.731Z,14.65
2022-08-22T04:05:02.907Z,14.65
2022-08-22T04:08:25.556Z,14.57
2022-08-22T04:11:19.117Z,14.31
2022-08-22T04:14:08.527Z,14.35
2022-08-22T04:17:12.977Z,14.55
2022-08-22T04:20:03.659Z,14.55
2022-08-22T04:23:02.457Z,14.57
2022-08-22T04:25:44.125Z,14.36
2022-08-22T04:28:10.487Z,14.31
2022-08-22T04:30:46.499Z,14.34
2022-08-22T04:33:27.847Z,14.40
2022-08-22T04:36:15.191Z,14.55
2022-08-22T04:39:14.254Z,14.71
2022-08-22T04:42:10.920Z,14.83
2022-08-22T04:44:57.674Z,14.89
2022-08-22T04:47:31.517Z,14.93
2022-08-22T04:50:09.923Z,14.95
2022-08-22T04:52:58.195Z,14.92
2022-08-22T04:55:33.015Z,14.98
2022-08-22T04:58:20.198Z,15.00
2022-08-22T05:01:12.013Z,15.03
2022-08-22T05:03:45.807Z,15.03
2022-08-22T05:06:19.058Z,15.08
2022-08-22T05:08:48.399Z,15.11
2022-08-22T05:11:23.442Z,15.00
2022-08-22T05:13:55.131Z,15.01
2022-08-22T05:16:25.112Z,15.18
2022-08-22T05:19:01.433Z,15.34
2022-08-22T05:21:33.916Z,15.42
2022-08-22T05:24:05.156Z,15.52
2022-08-22T05:26:38.544Z,15.61
2022-08-22T05:29:08.246Z,15.61
2022-08-22T05:31:48.150Z,15.66
2022-08-22T05:34:20.282Z,15.66
2022-08-22T05:36:54.151Z,15.72
2022-08-22T05:39:27.840Z,15.76
2022-08-22T05:42:00.294Z,15.76
2022-08-22T05:44:37.555Z,15.70
2022-08-22T05:47:25.786Z,15.64
2022-08-22T05:50:07.264Z,15.72
2022-08-22T05:53:06.229Z,15.93
2022-08-22T05:55:48.612Z,15.99
2022-08-22T05:58:30.166Z,16.05
2022-08-22T06:01:38.803Z,16.19
2022-08-22T06:04:14.382Z,16.07
2022-08-22T06:06:51.550Z,16.10
2022-08-22T06:09:24.475Z,16.18
2022-08-22T06:12:02.412Z,16.23
2022-08-22T06:14:45.144Z,16.38
2022-08-22T06:17:18.587Z,16.59
2022-08-22T06:19:48.647Z,16.74
2022-08-22T06:22:21.391Z,16.81
2022-08-22T06:24:49.875Z,16.89
2022-08-22T06:27:22.862Z,16.99
2022-08-22T06:29:56.364Z,17.05
2022-08-22T06:32:44.440Z,17.12
2022-08-22T06:35:22.360Z,17.24
2022-08-22T06:37:51.708Z,17.42
2022-08-22T06:40:18.823Z,17.60
2022-08-22T06:42:50.452Z,17.79
2022-08-22T06:45:31.024Z,17.90
2022-08-22T06:48:06.965Z,18.00
2022-08-22T06:50:36.824Z,18.08
2022-08-22T06:53:07.557Z,18.17
2022-08-22T06:55:38.037Z,18.22
2022-08-22T06:58:15.418Z,18.37
2022-08-22T07:00:43.517Z,18.49
2022-08-22T07:04:02.494Z,18.60
2022-08-22T07:06:32.123Z,18.69
2022-08-22T07:08:58.767Z,18.78
2022-08-22T07:11:31.431Z,18.82
2022-08-22T07:14:05.393Z,18.97
2022-08-22T07:16:49.693Z,19.03
2022-08-22T07:19:47.271Z,19.13
2022-08-22T07:22:23.707Z,19.21
2022-08-22T07:24:56.286Z,19.31
2022-08-22T07:27:48.882Z,19.43
2022-08-22T07:30:28.071Z,19.55
2022-08-22T07:33:25.172Z,19.71
2022-08-22T07:35:59.731Z,19.82
2022-08-22T07:38:42.968Z,19.90
2022-08-22T07:41:21.925Z,20.04
2022-08-22T07:44:05.366Z,20.15
2022-08-22T07:46:51.245Z,20.22
2022-08-22T07:49:30.554Z,20.27
2022-08-22T07:52:12.176Z,20.39
2022-08-22T07:55:08.762Z,20.49
2022-08-22T07:57:43.100Z,20.58
2022-08-22T08:00:16.881Z,20.67
2022-08-22T08:02:49.739Z,20.69
2022-08-22T08:05:17.611Z,20.75
2022-08-22T08:07:45.920Z,20.83
2022-08-22T08:10:18.392Z,20.96
2022-08-22T08:13:01.651Z,21.02
2022-08-22T08:15:32.006Z,21.10
2022-08-22T08:18:03.727Z,21.22
2022-08-22T08:20:30.743Z,21.28
2022-08-22T08:22:58.482Z,21.36
2022-08-22T08:25:27.600Z,21.50
2022-08-22T08:28:15.839Z,21.52
2022-08-22T08:30:55.709Z,21.67
2022-08-22T08:33:26.985Z,21.79
2022-08-22T08:36:17.319Z,21.92
2022-08-22T08:38:53.135Z,21.97
2022-08-22T08:41:50.893Z,22.05
2022-08-22T08:44:32.899Z,22.15
2022-08-22T08:47:22.803Z,22.25
2022-08-22T08:50:07.403Z,22.27
2022-08-22T08:53:14.274Z,22.33
2022-08-22T08:55:45.406Z,22.37
2022-08-22T08:58:33.733Z,22.44
2022-08-22T09:01:00.217Z,22.51
2022-08-22T09:03:47.617Z,22.68
2022-08-22T09:06:50.781Z,22.84
2022-08-22T09:10:01.107Z,22.94
2022-08-22T09:12:56.265Z,22.97
2022-08-22T09:16:04.715Z,23.13
2022-08-22T09:19:01.123Z,23.19
2022-08-22T09:22:04.154Z,23.26
2022-08-22T09:24:48.270Z,23.32
2022-08-22T09:27:36.778Z,23.40
2022-08-22T09:30:17.120Z,23.54
2022-08-22T09:33:04.182Z,23.62
2022-08-22T09:36:05.345Z,23.64
2022-08-22T09:38:53.874Z,23.69
2022-08-22T09:41:30.479Z,23.71
2022-08-22T09:44:01.820Z,23.73
2022-08-22T09:46:49.548Z,23.91
2022-08-22T09:49:45.887Z,23.97
2022-08-22T09:52:34.183Z,23.98
2022-08-22T09:55:16.151Z,24.12
2022-08-22T09:57:59.875Z,24.23
2022-08-22T10:00:40.549Z,24.23
2022-08-22T10:03:23.211Z,24.24
2022-08-22T10:06:00.549Z,24.31
2022-08-22T10:08:32.920Z,24.29
2022-08-22T10:11:02.677Z,24.20
2022-08-22T10:13:40.136Z,24.18
2022-08-22T10:16:19.384Z,24.36
2022-08-22T10:19:00.544Z,24.38
2022-08-22T10:21:45.860Z,24.25
2022-08-22T10:24:32.204Z,24.45
2022-08-22T10:27:11.763Z,24.50
2022-08-22T10:29:57.832Z,24.62
2022-08-22T10:32:49.335Z,24.54
2022-08-22T10:35:33.957Z,24.70
2022-08-22T10:38:16.479Z,24.88
2022-08-22T10:41:10.240Z,24.82
2022-08-22T10:44:01.507Z,24.90
2022-08-22T10:46:54.917Z,25.04
2022-08-22T10:49:35.916Z,25.20
2022-08-22T10:52:16.769Z,25.18
2022-08-22T10:54:49.812Z,25.15
2022-08-22T10:57:38.041Z,25.28
2022-08-22T11:00:22.424Z,25.39
2022-08-22T11:03:24.834Z,25.50
2022-08-22T11:05:54.286Z,25.67
2022-08-22T11:08:48.823Z,25.53
2022-08-22T11:11:36.656Z,25.36
2022-08-22T11:14:24.570Z,25.55
2022-08-22T11:16:58.955Z,25.64
2022-08-22T11:19:46.592Z,25.76
2022-08-22T11:22:46.123Z,26.09
2022-08-22T11:25:28.676Z,26.18
2022-08-22T11:28:32.797Z,25.83
2022-08-22T11:31:16.151Z,25.63
2022-08-22T11:33:49.904Z,25.59
2022-08-22T11:36:31.115Z,26.08
2022-08-22T11:39:25.019Z,26.31
2022-08-22T11:42:04.337Z,26.38
2022-08-22T11:44:53.891Z,26.37
2022-08-22T11:47:28.070Z,26.31
2022-08-22T11:50:25.040Z,26.58
2022-08-22T11:53:04.453Z,26.67
2022-08-22T11:55:48.323Z,26.39
2022-08-22T11:58:45.667Z,26.21
2022-08-22T12:01:27.299Z,26.44
2022-08-22T12:04:09.846Z,26.38
2022-08-22T12:07:01.951Z,25.86
2022-08-22T12:09:59.433Z,25.77
2022-08-22T12:12:37.620Z,25.74
2022-08-22T12:15:10.246Z,25.81
2022-08-22T12:18:01.324Z,25.75
2022-08-22T12:20:52.268Z,26.10
2022-08-22T12:23:43.522Z,26.46
2022-08-22T12:26:28.176Z,26.56
2022-08-22T12:29:06.115Z,26.35
2022-08-22T12:32:16.452Z,26.34
2022-08-22T12:35:20.621Z,26.29
2022-08-22T12:38:28.360Z,26.08
2022-08-22T12:41:28.421Z,26.20
2022-08-22T12:44:17.052Z,26.37
2022-08-22T12:47:11.811Z,26.21
2022-08-22T12:50:21.574Z,26.37
2022-08-22T12:53:38.667Z,26.31
2022-08-22T12:56:26.806Z,26.23
2022-08-22T12:59:17.723Z,26.13
2022-08-22T13:01:47.075Z,26.33
2022-08-22T13:04:19.194Z,26.24
2022-08-22T13:07:30.515Z,26.40
2022-08-22T13:10:28.520Z,26.19
2022-08-22T13:12:58.132Z,26.35
2022-08-22T13:15:36.751Z,26.21
2022-08-22T13:18:30.082Z,26.21
2022-08-22T13:21:00.960Z,26.24
2022-08-22T13:23:39.940Z,26.26
2022-08-22T13:26:33.649Z,26.17
2022-08-22T13:29:39.575Z,26.28
2022-08-22T13:32:04.491Z,26.46
2022-08-22T13:34:48.257Z,26.35
2022-08-22T13:37:28.282Z,26.09
2022-08-22T13:40:00.932Z,26.16
2022-08-22T13:42:31.611Z,26.15
2022-08-22T13:45:02.557Z,26.06
2022-08-22T13:47:32.399Z,26.03
2022-08-22T13:50:19.187Z,25.90
2022-08-22T13:53:13.734Z,25.84
2022-08-22T13:55:49.248Z,25.84
2022-08-22T13:58:38.621Z,25.98
2022-08-22T14:01:28.446Z,26.12
2022-08-22T14:04:05.443Z,26.10
2022-08-22T14:06:49.683Z,25.91
2022-08-22T14:09:32.065Z,25.82
2022-08-22T14:12:16.971Z,26.07
2022-08-22T14:14:47.130Z,26.08
2022-08-22T14:17:17.472Z,25.83
2022-08-22T14:19:58.677Z,25.84
2022-08-22T14:22:31.758Z,25.69
2022-08-22T14:25:07.260Z,25.49
2022-08-22T14:27:39.542Z,25.67
2022-08-22T14:30:18.646Z,25.43
2022-08-22T14:32:51.322Z,25.48
2022-08-22T14:35:31.415Z,25.50
2022-08-22T14:38:29.829Z,25.60
2022-08-22T14:41:04.162Z,25.52
2022-08-22T14:43:31.879Z,25.57
2022-08-22T14:46:08.691Z,25.41
2022-08-22T14:48:43.317Z,25.25
2022-08-22T14:51:26.822Z,25.26
2022-08-22T14:54:21.280Z,25.23
2022-08-22T14:56:50.337Z,25.32
2022-08-22T14:59:36.853Z,25.21
2022-08-22T15:02:09.622Z,25.09
2022-08-22T15:04:43.916Z,25.12
2022-08-22T15:07:13.677Z,25.06
2022-08-22T15:09:48.852Z,25.06
2022-08-22T15:12:28.533Z,24.95
2022-08-22T15:15:00.451Z,25.11
2022-08-22T15:17:51.002Z,25.14
2022-08-22T15:20:38.254Z,25.24
2022-08-22T15:23:19.579Z,25.20
2022-08-22T15:25:58.651Z,25.16
2022-08-22T15:28:25.975Z,25.07
2022-08-22T15:30:54.062Z,24.91
2022-08-22T15:33:32.242Z,25.05
2022-08-22T15:36:15.859Z,25.09
2022-08-22T15:38:48.794Z,24.99
2022-08-22T15:41:51.037Z,24.95
2022-08-22T15:44:33.044Z,24.97
2022-08-22T15:47:23.712Z,24.97
2022-08-22T15:49:56.406Z,25.02
2022-08-22T15:52:35.655Z,25.00
2022-08-22T15:55:23.740Z,25.29
2022-08-22T15:58:05.233Z,25.31
2022-08-22T16:00:43.332Z,25.05
2022-08-22T16:03:32.844Z,25.15
2022-08-22T16:06:07.637Z,24.99
2022-08-22T16:08:36.944Z,24.94
2022-08-22T16:11:03.330Z,24.90
2022-08-22T16:13:29.795Z,24.77
2022-08-22T16:16:07.083Z,24.81
2022-08-22T16:18:33.490Z,24.75
2022-08-22T16:21:13.277Z,24.86
2022-08-22T16:24:05.581Z,24.71
2022-08-22T16:26:32.029Z,24.69
2022-08-22T16:29:14.725Z,24.53
2022-08-22T16:31:43.808Z,24.53
2022-08-22T16:34:16.404Z,24.52
2022-08-22T16:37:10.869Z,24.55
2022-08-22T16:39:43.979Z,24.55
2022-08-22T16:42:13.304Z,24.52
2022-08-22T16:44:49.068Z,24.42
2022-08-22T16:47:24.815Z,24.40
2022-08-22T16:49:51.202Z,24.40
2022-08-22T16:52:20.937Z,24.37
2022-08-22T16:54:50.261Z,24.43
2022-08-22T16:57:25.202Z,24.51
2022-08-22T17:00:05.150Z,24.63
2022-08-22T17:03:10.421Z,24.41
2022-08-22T17:06:00.463Z,24.50
2022-08-22T17:08:54.087Z,24.56
2022-08-22T17:11:40.517Z,24.61
2022-08-22T17:14:42.560Z,24.52
2022-08-22T17:17:41.247Z,24.32
2022-08-22T17:20:44.718Z,24.35
2022-08-22T17:23:45.017Z,24.32
2022-08-22T17:26:36.035Z,24.09
2022-08-22T17:29:15.744Z,24.10
2022-08-22T17:31:54.483Z,23.96
2022-08-22T17:34:45.658Z,23.88
2022-08-22T17:37:25.965Z,23.79
2022-08-22T17:40:09.820Z,23.88
2022-08-22T17:43:21.711Z,23.93
2022-08-22T17:46:03.335Z,23.80
2022-08-22T17:49:00.882Z,23.82
2022-08-22T17:51:54.686Z,23.66
2022-08-22T17:54:30.739Z,23.60
2022-08-22T17:57:10.232Z,23.51
2022-08-22T17:59:46.638Z,23.47
2022-08-22T18:02:22.227Z,23.38
2022-08-22T18:05:14.051Z,23.33
2022-08-22T18:07:49.993Z,23.40
2022-08-22T18:10:35.765Z,23.27
2022-08-22T18:13:14.969Z,23.03
2022-08-22T18:15:54.657Z,23.08
2022-08-22T18:18:45.896Z,23.09
2022-08-22T18:21:37.190Z,23.06
2022-08-22T18:24:09.632Z,22.98
2022-08-22T18:26:41.780Z,22.96
2022-08-22T18:29:13.651Z,22.82
2022-08-22T18:32:08.593Z,22.89
2022-08-22T18:35:01.762Z,22.80
2022-08-22T18:37:35.606Z,22.75
2022-08-22T18:40:22.218Z,22.68
2022-08-22T18:42:58.156Z,22.58
2022-08-22T18:45:47.936Z,22.61
2022-08-22T18:48:59.454Z,22.47
2022-08-22T18:51:38.398Z,22.22
2022-08-22T18:54:05.111Z,22.32
2022-08-22T18:56:31.495Z,22.28
2022-08-22T18:59:22.109Z,22.17
2022-08-22T19:01:56.499Z,22.08
2022-08-22T19:04:56.918Z,22.09
2022-08-22T19:07:37.534Z,22.02
2022-08-22T19:10:34.872Z,21.98
2022-08-22T19:13:21.431Z,21.87
2022-08-22T19:16:15.199Z,21.92
2022-08-22T19:18:54.216Z,22.00
2022-08-22T19:21:55.037Z,21.93
2022-08-22T19:24:27.554Z,21.76
2022-08-22T19:27:18.970Z,21.77
2022-08-22T19:29:45.332Z,21.60
2022-08-22T19:32:46.771Z,21.66
2022-08-22T19:35:26.041Z,21.64
2022-08-22T19:38:04.839Z,21.62
2022-08-22T19:40:46.212Z,21.64
2022-08-22T19:43:30.588Z,21.49
2022-08-22T19:45:59.725Z,21.43
2022-08-22T19:48:33.832Z,21.53
2022-08-22T19:51:23.888Z,21.60
2022-08-22T19:54:22.944Z,21.52
2022-08-22T19:57:13.587Z,21.44
2022-08-22T20:00:11.004Z,21.48
2022-08-22T20:02:55.458Z,21.49
2022-08-22T20:05:37.156Z,21.60
2022-08-22T20:08:19.137Z,21.54
2022-08-22T20:11:21.400Z,21.53
2022-08-22T20:13:48.657Z,21.62
2022-08-22T20:16:23.669Z,21.52
2022-08-22T20:19:05.499Z,21.62
2022-08-22T20:21:39.137Z,21.73
2022-08-22T20:24:07.906Z,21.67
2022-08-22T20:26:43.576Z,21.65
2022-08-22T20:29:30.369Z,21.63
2022-08-22T20:31:59.070Z,21.42
2022-08-22T20:34:29.639Z,21.43
2022-08-22T20:37:22.701Z,21.27
2022-08-22T20:40:53.416Z,21.13
2022-08-22T20:43:14.563Z,21.03
2022-08-22T20:46:18.976Z,21.09
2022-08-22T20:48:47.993Z,21.07
2022-08-22T20:51:19.756Z,21.18
2022-08-22T20:53:54.954Z,21.20
2022-08-22T20:56:33.520Z,21.21
2022-08-22T20:59:01.305Z,21.21
2022-08-22T21:01:29.004Z,21.25
2022-08-22T21:03:56.392Z,21.24
2022-08-22T21:06:32.454Z,21.28
2022-08-22T21:09:39.277Z,21.28
2022-08-22T21:12:09.449Z,21.25
2022-08-22T21:14:44.402Z,21.21
2022-08-22T21:17:39.194Z,21.17
2022-08-22T21:20:19.143Z,21.08
2022-08-22T21:22:45.575Z,21.04
2022-08-22T21:25:12.016Z,20.99
2022-08-22T21:27:38.452Z,21.03
2022-08-22T21:30:08.575Z,21.07
2022-08-22T21:32:43.101Z,21.09
2022-08-22T21:35:29.635Z,21.13
2022-08-22T21:37:57.280Z,21.06
2022-08-22T21:40:32.005Z,21.02
2022-08-22T21:43:11.039Z,21.00
2022-08-22T21:45:37.388Z,20.88
2022-08-22T21:48:31.087Z,20.89
2022-08-22T21:51:27.598Z,20.88
2022-08-22T21:54:39.562Z,20.86
2022-08-22T21:57:08.669Z,20.81
2022-08-22T21:59:50.898Z,20.76
2022-08-22T22:02:28.970Z,20.73
2022-08-22T22:04:58.587Z,20.72
2022-08-22T22:07:25.818Z,20.65
2022-08-22T22:09:53.057Z,20.62
2022-08-22T22:12:22.470Z,20.53
2022-08-22T22:17:17.892Z,20.50
2022-08-22T22:19:44.832Z,20.49
2022-08-22T22:22:11.260Z,20.43
2022-08-22T22:24:37.756Z,20.42
2022-08-22T22:27:05.028Z,20.35
2022-08-22T22:29:32.890Z,20.37
2022-08-22T22:31:59.476Z,20.37
2022-08-22T22:34:26.035Z,20.37
2022-08-22T22:36:53.456Z,20.30
2022-08-22T22:39:19.924Z,20.25
2022-08-22T22:41:46.396Z,20.26
2022-08-22T22:44:12.862Z,20.19
2022-08-22T22:46:39.283Z,20.17
2022-08-22T22:49:05.861Z,20.14
2022-08-22T22:51:32.385Z,20.13
2022-08-22T22:53:58.946Z,20.15
2022-08-22T22:56:25.500Z,20.16
2022-08-22T22:58:59.063Z,20.12
2022-08-22T23:01:27.824Z,20.09
2022-08-22T23:04:05.464Z,20.11
2022-08-22T23:06:32.899Z,20.03
2022-08-22T23:08:59.376Z,19.96
2022-08-22T23:11:30.177Z,19.92
2022-08-22T23:13:56.750Z,19.92
2022-08-22T23:16:26.520Z,20.00
2022-08-22T23:18:53.403Z,19.97
2022-08-22T23:21:26.420Z,19.97
2022-08-22T23:23:56.242Z,19.96
2022-08-22T23:26:22.971Z,19.96
2022-08-22T23:28:49.632Z,19.91
2022-08-22T23:31:28.935Z,19.88
2022-08-22T23:33:56.600Z,19.82
2022-08-22T23:36:23.760Z,19.74
2022-08-22T23:38:51.870Z,19.75
2022-08-22T23:41:21.419Z,19.78
2022-08-22T23:43:50.488Z,19.65
2022-08-22T23:46:18.963Z,19.69
2022-08-22T23:48:46.329Z,19.75
2022-08-22T23:51:15.099Z,19.77
2022-08-22T23:53:44.916Z,19.74
2022-08-22T23:56:19.314Z,19.73
2022-08-22T23:58:46.350Z,19.65
